sensor_id;sensor_type;location;lat;lon;timestamp;pressure;altitude;pressure_sealevel;temperature;humidity
6778;BME280;3426;52.244;10.534;2023-02-16T00:01:23;101528.59;;;7.89;59.77
6778;BME280;3426;52.244;10.534;2023-02-16T00:03:51;101540.00;;;7.90;59.94
6778;BME280;3426;52.244;10.534;2023-02-16T00:06:18;101540.50;;;7.73;60.41
6778;BME280;3426;52.244;10.534;2023-02-16T00:08:47;101537.69;;;7.79;60.16
6778;BME280;3426;52.244;10.534;2023-02-16T00:11:30;101538.28;;;7.89;60.13
6778;BME280;3426;52.244;10.534;2023-02-16T00:14:15;101539.78;;;7.01;62.10
6778;BME280;3426;52.244;10.534;2023-02-16T00:16:42;101539.00;;;7.63;61.39
6778;BME280;3426;52.244;10.534;2023-02-16T00:19:36;101546.19;;;7.58;61.46
6778;BME280;3426;52.244;10.534;2023-02-16T00:22:04;101533.19;;;7.52;60.49
6778;BME280;3426;52.244;10.534;2023-02-16T00:24:31;101553.81;;;7.68;60.83
6778;BME280;3426;52.244;10.534;2023-02-16T00:26:59;101548.63;;;6.99;63.37
6778;BME280;3426;52.244;10.534;2023-02-16T00:29:31;101550.56;;;6.92;63.36
6778;BME280;3426;52.244;10.534;2023-02-16T00:32:00;101546.09;;;7.28;62.27
6778;BME280;3426;52.244;10.534;2023-02-16T00:34:39;101548.47;;;7.70;61.61
6778;BME280;3426;52.244;10.534;2023-02-16T00:37:08;101552.47;;;7.20;62.89
6778;BME280;3426;52.244;10.534;2023-02-16T00:39:36;101557.72;;;7.21;62.91
6778;BME280;3426;52.244;10.534;2023-02-16T00:42:17;101552.72;;;7.43;61.76
6778;BME280;3426;52.244;10.534;2023-02-16T00:44:49;101544.56;;;7.85;60.82
6778;BME280;3426;52.244;10.534;2023-02-16T00:49:51;101542.91;;;8.10;58.38
6778;BME280;3426;52.244;10.534;2023-02-16T00:54:47;101540.28;;;8.10;59.10
6778;BME280;3426;52.244;10.534;2023-02-16T00:57:16;101535.03;;;7.79;59.53
6778;BME280;3426;52.244;10.534;2023-02-16T00:59:44;101544.72;;;7.13;61.38
6778;BME280;3426;52.244;10.534;2023-02-16T01:02:12;101544.00;;;7.74;60.73
6778;BME280;3426;52.244;10.534;2023-02-16T01:04:39;101536.09;;;7.74;60.35
6778;BME280;3426;52.244;10.534;2023-02-16T01:07:11;101543.03;;;7.76;59.93
6778;BME280;3426;52.244;10.534;2023-02-16T01:09:56;101535.03;;;7.79;59.87
6778;BME280;3426;52.244;10.534;2023-02-16T01:12:41;101540.91;;;7.58;60.02
6778;BME280;3426;52.244;10.534;2023-02-16T01:15:12;101537.28;;;7.93;59.56
6778;BME280;3426;52.244;10.534;2023-02-16T01:17:39;101528.56;;;7.91;59.37
6778;BME280;3426;52.244;10.534;2023-02-16T01:20:19;101530.56;;;7.83;59.57
6778;BME280;3426;52.244;10.534;2023-02-16T01:22:46;101523.31;;;7.89;59.10
6778;BME280;3426;52.244;10.534;2023-02-16T01:25:13;101523.16;;;7.94;59.23
6778;BME280;3426;52.244;10.534;2023-02-16T01:27:40;101515.66;;;7.80;59.60
6778;BME280;3426;52.244;10.534;2023-02-16T01:30:14;101515.00;;;7.74;60.52
6778;BME280;3426;52.244;10.534;2023-02-16T01:32:41;101509.66;;;7.75;60.15
6778;BME280;3426;52.244;10.534;2023-02-16T01:35:09;101503.53;;;7.75;59.98
6778;BME280;3426;52.244;10.534;2023-02-16T01:37:35;101503.34;;;7.81;60.00
6778;BME280;3426;52.244;10.534;2023-02-16T01:40:02;101496.09;;;7.89;59.71
6778;BME280;3426;52.244;10.534;2023-02-16T01:42:50;101498.16;;;7.47;61.04
6778;BME280;3426;52.244;10.534;2023-02-16T01:45:34;101500.66;;;7.20;62.04
6778;BME280;3426;52.244;10.534;2023-02-16T01:48:06;101498.88;;;6.88;63.74
6778;BME280;3426;52.244;10.534;2023-02-16T01:53:57;101502.09;;;6.98;62.96
6778;BME280;3426;52.244;10.534;2023-02-16T01:56:38;101496.84;;;7.32;63.00
6778;BME280;3426;52.244;10.534;2023-02-16T01:59:36;101485.19;;;7.72;60.56
6778;BME280;3426;52.244;10.534;2023-02-16T02:02:02;101482.13;;;7.54;61.47
6778;BME280;3426;52.244;10.534;2023-02-16T02:04:39;101470.84;;;7.51;62.23
6778;BME280;3426;52.244;10.534;2023-02-16T02:07:40;101472.03;;;7.39;63.33
6778;BME280;3426;52.244;10.534;2023-02-16T02:10:23;101476.28;;;7.44;63.04
6778;BME280;3426;52.244;10.534;2023-02-16T02:13:01;101479.72;;;7.14;63.63
6778;BME280;3426;52.244;10.534;2023-02-16T02:15:31;101479.09;;;7.37;62.62
6778;BME280;3426;52.244;10.534;2023-02-16T02:17:58;101486.28;;;6.63;65.75
6778;BME280;3426;52.244;10.534;2023-02-16T02:20:36;101477.78;;;7.22;64.21
6778;BME280;3426;52.244;10.534;2023-02-16T02:23:37;101472.25;;;7.62;62.62
6778;BME280;3426;52.244;10.534;2023-02-16T02:29:27;101474.53;;;7.75;62.55
6778;BME280;3426;52.244;10.534;2023-02-16T02:45:46;101475.38;;;7.75;61.67
6778;BME280;3426;52.244;10.534;2023-02-16T02:48:14;101475.53;;;7.07;63.83
6778;BME280;3426;52.244;10.534;2023-02-16T02:50:48;101463.91;;;7.47;62.51
6778;BME280;3426;52.244;10.534;2023-02-16T02:56:30;101459.88;;;7.64;62.15
6778;BME280;3426;52.244;10.534;2023-02-16T02:59:15;101454.16;;;7.50;62.67
6778;BME280;3426;52.244;10.534;2023-02-16T03:02:01;101454.16;;;7.50;62.37
6778;BME280;3426;52.244;10.534;2023-02-16T03:04:29;101467.16;;;6.58;65.23
6778;BME280;3426;52.244;10.534;2023-02-16T03:06:57;101459.63;;;7.42;63.71
6778;BME280;3426;52.244;10.534;2023-02-16T03:09:26;101475.31;;;6.82;64.66
6778;BME280;3426;52.244;10.534;2023-02-16T03:11:54;101466.31;;;7.54;62.71
6778;BME280;3426;52.244;10.534;2023-02-16T03:14:47;101472.16;;;6.68;65.95
6778;BME280;3426;52.244;10.534;2023-02-16T03:17:17;101463.69;;;6.90;65.11
6778;BME280;3426;52.244;10.534;2023-02-16T03:20:07;101467.31;;;6.86;64.92
6778;BME280;3426;52.244;10.534;2023-02-16T03:22:56;101464.38;;;6.97;65.04
6778;BME280;3426;52.244;10.534;2023-02-16T03:25:42;101458.03;;;7.37;63.38
6778;BME280;3426;52.244;10.534;2023-02-16T03:28:30;101447.84;;;7.56;62.10
6778;BME280;3426;52.244;10.534;2023-02-16T03:31:23;101446.38;;;7.46;62.65
6778;BME280;3426;52.244;10.534;2023-02-16T03:33:52;101447.97;;;7.51;62.62
6778;BME280;3426;52.244;10.534;2023-02-16T03:36:25;101452.28;;;7.23;62.58
6778;BME280;3426;52.244;10.534;2023-02-16T03:38:53;101457.44;;;7.27;62.78
6778;BME280;3426;52.244;10.534;2023-02-16T03:41:21;101463.56;;;7.28;63.50
6778;BME280;3426;52.244;10.534;2023-02-16T03:43:48;101462.78;;;7.55;62.20
6778;BME280;3426;52.244;10.534;2023-02-16T03:46:14;101455.94;;;7.48;62.91
6778;BME280;3426;52.244;10.534;2023-02-16T03:48:41;101449.06;;;7.44;62.84
6778;BME280;3426;52.244;10.534;2023-02-16T03:51:08;101456.31;;;7.65;62.20
6778;BME280;3426;52.244;10.534;2023-02-16T03:53:34;101454.00;;;7.24;62.32
6778;BME280;3426;52.244;10.534;2023-02-16T03:56:00;101461.31;;;6.80;64.35
6778;BME280;3426;52.244;10.534;2023-02-16T03:58:27;101463.06;;;7.13;63.53
6778;BME280;3426;52.244;10.534;2023-02-16T04:00:53;101464.38;;;7.30;64.14
6778;BME280;3426;52.244;10.534;2023-02-16T04:03:20;101462.97;;;7.49;62.42
6778;BME280;3426;52.244;10.534;2023-02-16T04:05:46;101461.16;;;6.86;63.35
6778;BME280;3426;52.244;10.534;2023-02-16T04:08:13;101474.22;;;6.90;64.62
6778;BME280;3426;52.244;10.534;2023-02-16T04:10:39;101457.91;;;7.10;64.48
6778;BME280;3426;52.244;10.534;2023-02-16T04:13:06;101455.50;;;7.34;62.86
6778;BME280;3426;52.244;10.534;2023-02-16T04:15:33;101465.34;;;7.27;62.65
6778;BME280;3426;52.244;10.534;2023-02-16T04:18:00;101463.16;;;7.41;62.48
6778;BME280;3426;52.244;10.534;2023-02-16T04:20:30;101475.19;;;7.21;62.38
6778;BME280;3426;52.244;10.534;2023-02-16T04:22:57;101473.34;;;6.90;65.08
6778;BME280;3426;52.244;10.534;2023-02-16T04:25:25;101477.81;;;6.88;63.90
6778;BME280;3426;52.244;10.534;2023-02-16T04:27:52;101475.81;;;6.26;67.04
6778;BME280;3426;52.244;10.534;2023-02-16T04:30:24;101470.72;;;6.90;64.50
6778;BME280;3426;52.244;10.534;2023-02-16T04:32:52;101472.59;;;6.86;64.09
6778;BME280;3426;52.244;10.534;2023-02-16T04:35:18;101472.59;;;6.85;64.62
6778;BME280;3426;52.244;10.534;2023-02-16T04:37:45;101477.25;;;7.08;63.34
6778;BME280;3426;52.244;10.534;2023-02-16T04:40:14;101469.84;;;6.55;64.03
6778;BME280;3426;52.244;10.534;2023-02-16T04:42:41;101471.41;;;6.98;63.59
6778;BME280;3426;52.244;10.534;2023-02-16T04:45:09;101466.13;;;6.98;63.37
6778;BME280;3426;52.244;10.534;2023-02-16T04:47:36;101470.75;;;6.88;63.59
6778;BME280;3426;52.244;10.534;2023-02-16T04:50:03;101468.50;;;6.73;64.18
6778;BME280;3426;52.244;10.534;2023-02-16T04:52:30;101464.38;;;6.64;64.08
6778;BME280;3426;52.244;10.534;2023-02-16T04:54:57;101462.31;;;6.40;65.13
6778;BME280;3426;52.244;10.534;2023-02-16T04:57:23;101464.06;;;6.41;64.93
6778;BME280;3426;52.244;10.534;2023-02-16T04:59:50;101455.47;;;6.69;65.19
6778;BME280;3426;52.244;10.534;2023-02-16T05:02:16;101462.50;;;6.68;65.20
6778;BME280;3426;52.244;10.534;2023-02-16T05:04:43;101457.38;;;6.62;65.03
6778;BME280;3426;52.244;10.534;2023-02-16T05:07:09;101452.66;;;6.76;64.53
6778;BME280;3426;52.244;10.534;2023-02-16T05:09:35;101454.44;;;6.76;65.16
6778;BME280;3426;52.244;10.534;2023-02-16T05:12:02;101451.97;;;6.68;65.05
6778;BME280;3426;52.244;10.534;2023-02-16T05:14:47;101450.13;;;6.72;65.75
6778;BME280;3426;52.244;10.534;2023-02-16T05:17:20;101441.75;;;6.90;64.58
6778;BME280;3426;52.244;10.534;2023-02-16T05:19:48;101445.94;;;6.64;65.28
6778;BME280;3426;52.244;10.534;2023-02-16T05:22:16;101455.97;;;6.49;65.55
6778;BME280;3426;52.244;10.534;2023-02-16T05:24:43;101449.75;;;6.51;65.67
6778;BME280;3426;52.244;10.534;2023-02-16T05:27:12;101452.84;;;6.69;65.02
6778;BME280;3426;52.244;10.534;2023-02-16T05:29:39;101444.06;;;6.70;64.73
6778;BME280;3426;52.244;10.534;2023-02-16T05:32:06;101453.00;;;6.62;66.04
6778;BME280;3426;52.244;10.534;2023-02-16T05:34:32;101439.97;;;6.90;64.50
6778;BME280;3426;52.244;10.534;2023-02-16T05:36:59;101440.03;;;6.89;64.39
6778;BME280;3426;52.244;10.534;2023-02-16T05:39:25;101443.13;;;7.03;63.62
6778;BME280;3426;52.244;10.534;2023-02-16T05:41:52;101437.81;;;7.06;63.79
6778;BME280;3426;52.244;10.534;2023-02-16T05:44:18;101442.38;;;7.00;64.30
6778;BME280;3426;52.244;10.534;2023-02-16T05:46:45;101442.25;;;7.04;63.33
6778;BME280;3426;52.244;10.534;2023-02-16T05:49:15;101434.69;;;6.92;63.72
6778;BME280;3426;52.244;10.534;2023-02-16T05:51:41;101433.78;;;6.93;63.28
6778;BME280;3426;52.244;10.534;2023-02-16T05:54:08;101438.22;;;6.91;64.02
6778;BME280;3426;52.244;10.534;2023-02-16T05:56:36;101436.16;;;6.70;64.27
6778;BME280;3426;52.244;10.534;2023-02-16T05:59:02;101437.97;;;6.32;65.01
6778;BME280;3426;52.244;10.534;2023-02-16T06:01:29;101434.38;;;6.70;64.37
6778;BME280;3426;52.244;10.534;2023-02-16T06:03:55;101438.38;;;6.85;64.24
6778;BME280;3426;52.244;10.534;2023-02-16T06:06:22;101443.63;;;6.85;64.19
6778;BME280;3426;52.244;10.534;2023-02-16T06:08:48;101435.72;;;6.86;63.62
6778;BME280;3426;52.244;10.534;2023-02-16T06:11:15;101449.09;;;6.43;64.93
6778;BME280;3426;52.244;10.534;2023-02-16T06:14:01;101457.59;;;6.54;65.01
6778;BME280;3426;52.244;10.534;2023-02-16T06:16:29;101464.72;;;6.49;64.90
6778;BME280;3426;52.244;10.534;2023-02-16T06:18:56;101455.19;;;6.08;66.41
6778;BME280;3426;52.244;10.534;2023-02-16T06:21:23;101457.97;;;6.02;65.66
6778;BME280;3426;52.244;10.534;2023-02-16T06:23:51;101454.16;;;6.52;65.04
6778;BME280;3426;52.244;10.534;2023-02-16T06:26:18;101461.91;;;6.57;64.08
6778;BME280;3426;52.244;10.534;2023-02-16T06:28:44;101461.19;;;6.50;63.84
6778;BME280;3426;52.244;10.534;2023-02-16T06:31:11;101466.16;;;6.62;63.85
6778;BME280;3426;52.244;10.534;2023-02-16T06:33:37;101453.25;;;6.53;64.76
6778;BME280;3426;52.244;10.534;2023-02-16T06:36:05;101451.41;;;6.20;65.98
6778;BME280;3426;52.244;10.534;2023-02-16T06:38:31;101456.72;;;6.54;65.66
6778;BME280;3426;52.244;10.534;2023-02-16T06:40:58;101453.44;;;6.44;66.57
6778;BME280;3426;52.244;10.534;2023-02-16T06:43:24;101456.53;;;6.61;65.03
6778;BME280;3426;52.244;10.534;2023-02-16T06:45:51;101456.00;;;6.83;65.02
6778;BME280;3426;52.244;10.534;2023-02-16T06:48:18;101463.06;;;6.81;64.26
6778;BME280;3426;52.244;10.534;2023-02-16T06:50:44;101468.34;;;6.79;64.25
6778;BME280;3426;52.244;10.534;2023-02-16T06:53:11;101459.28;;;6.91;63.84
6778;BME280;3426;52.244;10.534;2023-02-16T06:55:37;101457.91;;;7.09;63.21
6778;BME280;3426;52.244;10.534;2023-02-16T06:58:06;101465.84;;;6.75;63.98
6778;BME280;3426;52.244;10.534;2023-02-16T07:00:33;101463.28;;;7.06;63.33
6778;BME280;3426;52.244;10.534;2023-02-16T07:03:00;101466.84;;;7.03;63.70
6778;BME280;3426;52.244;10.534;2023-02-16T07:05:26;101459.28;;;7.24;62.77
6778;BME280;3426;52.244;10.534;2023-02-16T07:07:53;101457.94;;;7.40;62.92
6778;BME280;3426;52.244;10.534;2023-02-16T07:10:19;101455.78;;;7.54;62.20
6778;BME280;3426;52.244;10.534;2023-02-16T07:12:47;101462.59;;;7.32;62.26
6778;BME280;3426;52.244;10.534;2023-02-16T07:15:13;101463.25;;;7.69;61.73
6778;BME280;3426;52.244;10.534;2023-02-16T07:17:40;101464.09;;;7.72;62.74
6778;BME280;3426;52.244;10.534;2023-02-16T07:20:06;101465.69;;;7.13;63.73
6778;BME280;3426;52.244;10.534;2023-02-16T07:22:33;101466.50;;;7.48;61.92
6778;BME280;3426;52.244;10.534;2023-02-16T07:24:59;101459.03;;;8.49;59.82
6778;BME280;3426;52.244;10.534;2023-02-16T07:27:26;101451.59;;;8.62;59.05
6778;BME280;3426;52.244;10.534;2023-02-16T07:29:52;101454.94;;;8.41;59.45
6778;BME280;3426;52.244;10.534;2023-02-16T07:32:19;101455.75;;;8.69;58.31
6778;BME280;3426;52.244;10.534;2023-02-16T07:34:46;101451.72;;;8.30;58.81
6778;BME280;3426;52.244;10.534;2023-02-16T07:37:12;101453.47;;;8.03;60.41
6778;BME280;3426;52.244;10.534;2023-02-16T07:39:38;101455.09;;;8.35;60.67
6778;BME280;3426;52.244;10.534;2023-02-16T07:42:05;101452.56;;;9.35;56.80
6778;BME280;3426;52.244;10.534;2023-02-16T07:44:32;101452.63;;;9.33;56.22
6778;BME280;3426;52.244;10.534;2023-02-16T07:46:58;101459.41;;;9.40;54.49
6778;BME280;3426;52.244;10.534;2023-02-16T07:49:24;101456.31;;;9.04;56.10
6778;BME280;3426;52.244;10.534;2023-02-16T07:51:51;101457.91;;;9.33;55.84
6778;BME280;3426;52.244;10.534;2023-02-16T07:54:17;101458.88;;;8.81;55.81
6778;BME280;3426;52.244;10.534;2023-02-16T07:56:44;101455.16;;;9.36;55.13
6778;BME280;3426;52.244;10.534;2023-02-16T07:59:14;101466.81;;;8.54;57.45
6778;BME280;3426;52.244;10.534;2023-02-16T08:01:41;101464.66;;;8.92;57.08
6778;BME280;3426;52.244;10.534;2023-02-16T08:04:07;101463.63;;;8.96;56.57
6778;BME280;3426;52.244;10.534;2023-02-16T08:06:34;101460.56;;;9.08;55.26
6778;BME280;3426;52.244;10.534;2023-02-16T08:09:01;101467.16;;;8.96;57.33
6778;BME280;3426;52.244;10.534;2023-02-16T08:11:28;101464.88;;;9.82;53.30
6778;BME280;3426;52.244;10.534;2023-02-16T08:13:54;101464.38;;;9.73;55.87
6778;BME280;3426;52.244;10.534;2023-02-16T08:16:23;101465.56;;;10.09;52.16
6778;BME280;3426;52.244;10.534;2023-02-16T08:18:51;101463.41;;;10.43;51.15
6778;BME280;3426;52.244;10.534;2023-02-16T08:21:20;101466.94;;;10.20;52.04
6778;BME280;3426;52.244;10.534;2023-02-16T08:24:01;101463.22;;;10.69;50.68
6778;BME280;3426;52.244;10.534;2023-02-16T08:26:32;101466.94;;;11.26;49.22
6778;BME280;3426;52.244;10.534;2023-02-16T08:28:59;101462.75;;;11.60;49.00
6778;BME280;3426;52.244;10.534;2023-02-16T08:31:28;101458.69;;;11.72;47.60
6778;BME280;3426;52.244;10.534;2023-02-16T08:33:58;101466.28;;;11.01;49.27
6778;BME280;3426;52.244;10.534;2023-02-16T08:36:30;101461.81;;;11.81;47.18
6778;BME280;3426;52.244;10.534;2023-02-16T08:38:58;101449.06;;;12.79;45.98
6778;BME280;3426;52.244;10.534;2023-02-16T08:41:31;101451.59;;;12.29;46.17
6778;BME280;3426;52.244;10.534;2023-02-16T08:43:59;101453.34;;;13.51;43.95
6778;BME280;3426;52.244;10.534;2023-02-16T08:46:27;101451.69;;;14.13;42.06
6778;BME280;3426;52.244;10.534;2023-02-16T08:48:55;101462.28;;;11.71;47.74
6778;BME280;3426;52.244;10.534;2023-02-16T08:51:27;101463.59;;;12.00;46.29
6778;BME280;3426;52.244;10.534;2023-02-16T08:53:58;101456.97;;;12.98;45.67
6778;BME280;3426;52.244;10.534;2023-02-16T08:56:27;101450.06;;;15.17;41.43
6778;BME280;3426;52.244;10.534;2023-02-16T08:58:55;101454.75;;;14.53;41.95
6778;BME280;3426;52.244;10.534;2023-02-16T09:01:22;101450.63;;;13.00;44.36
6778;BME280;3426;52.244;10.534;2023-02-16T09:03:49;101450.44;;;12.34;46.34
6778;BME280;3426;52.244;10.534;2023-02-16T09:06:17;101454.06;;;12.85;45.59
6778;BME280;3426;52.244;10.534;2023-02-16T09:08:54;101444.53;;;13.82;44.09
6778;BME280;3426;52.244;10.534;2023-02-16T09:11:22;101434.63;;;15.93;39.49
6778;BME280;3426;52.244;10.534;2023-02-16T09:13:49;101428.16;;;15.40;38.91
6778;BME280;3426;52.244;10.534;2023-02-16T09:16:20;101437.38;;;13.51;43.69
6778;BME280;3426;52.244;10.534;2023-02-16T09:18:48;101444.72;;;15.17;41.15
6778;BME280;3426;52.244;10.534;2023-02-16T09:21:18;101449.41;;;13.74;42.93
6778;BME280;3426;52.244;10.534;2023-02-16T09:23:48;101435.00;;;15.30;40.49
6778;BME280;3426;52.244;10.534;2023-02-16T09:26:20;101450.13;;;14.25;41.66
6778;BME280;3426;52.244;10.534;2023-02-16T09:28:47;101440.84;;;16.21;39.33
6778;BME280;3426;52.244;10.534;2023-02-16T09:31:23;101433.09;;;17.10;36.23
6778;BME280;3426;52.244;10.534;2023-02-16T09:34:00;101442.41;;;16.10;38.83
6778;BME280;3426;52.244;10.534;2023-02-16T09:36:27;101436.41;;;18.14;34.45
6778;BME280;3426;52.244;10.534;2023-02-16T09:38:54;101434.34;;;18.41;34.37
6778;BME280;3426;52.244;10.534;2023-02-16T09:46:39;101412.78;;;19.24;32.36
6778;BME280;3426;52.244;10.534;2023-02-16T09:52:22;101419.31;;;18.27;32.95
6778;BME280;3426;52.244;10.534;2023-02-16T09:54:54;101417.22;;;18.31;33.30
6778;BME280;3426;52.244;10.534;2023-02-16T10:00:42;101393.88;;;17.72;35.62
6778;BME280;3426;52.244;10.534;2023-02-16T10:03:53;101406.34;;;16.97;35.98
6778;BME280;3426;52.244;10.534;2023-02-16T10:06:29;101412.44;;;16.59;37.58
6778;BME280;3426;52.244;10.534;2023-02-16T10:09:06;101412.97;;;16.25;36.90
6778;BME280;3426;52.244;10.534;2023-02-16T10:11:40;101415.09;;;17.50;37.19
6778;BME280;3426;52.244;10.534;2023-02-16T10:16:58;101429.97;;;16.51;37.89
6778;BME280;3426;52.244;10.534;2023-02-16T10:19:38;101414.22;;;17.49;36.72
6778;BME280;3426;52.244;10.534;2023-02-16T10:22:12;101418.13;;;15.86;40.32
6778;BME280;3426;52.244;10.534;2023-02-16T10:24:50;101424.84;;;14.48;41.95
6778;BME280;3426;52.244;10.534;2023-02-16T10:27:21;101432.31;;;14.41;43.01
6778;BME280;3426;52.244;10.534;2023-02-16T10:29:48;101427.59;;;14.30;42.31
6778;BME280;3426;52.244;10.534;2023-02-16T10:32:35;101433.78;;;13.84;43.76
6778;BME280;3426;52.244;10.534;2023-02-16T10:35:14;101429.88;;;13.42;45.17
6778;BME280;3426;52.244;10.534;2023-02-16T10:40:35;101427.94;;;15.00;42.55
6778;BME280;3426;52.244;10.534;2023-02-16T10:46:05;101419.75;;;14.43;41.52
6778;BME280;3426;52.244;10.534;2023-02-16T10:48:32;101414.19;;;14.48;41.57
6778;BME280;3426;52.244;10.534;2023-02-16T10:51:02;101418.50;;;13.05;45.41
6778;BME280;3426;52.244;10.534;2023-02-16T10:56:01;101429.53;;;11.90;47.61
6778;BME280;3426;52.244;10.534;2023-02-16T10:58:37;101428.09;;;13.08;46.58
6778;BME280;3426;52.244;10.534;2023-02-16T11:01:15;101426.00;;;13.47;45.91
6778;BME280;3426;52.244;10.534;2023-02-16T11:03:47;101426.41;;;13.73;44.50
6778;BME280;3426;52.244;10.534;2023-02-16T11:06:19;101424.22;;;12.80;47.46
6778;BME280;3426;52.244;10.534;2023-02-16T11:08:56;101426.72;;;12.49;47.97
6778;BME280;3426;52.244;10.534;2023-02-16T11:11:26;101417.34;;;12.93;47.55
6778;BME280;3426;52.244;10.534;2023-02-16T11:13:59;101411.75;;;13.48;46.44
6778;BME280;3426;52.244;10.534;2023-02-16T11:16:27;101415.38;;;12.09;48.01
6778;BME280;3426;52.244;10.534;2023-02-16T11:18:58;101419.19;;;12.39;47.89
6778;BME280;3426;52.244;10.534;2023-02-16T11:24:11;101403.44;;;12.71;47.91
6778;BME280;3426;52.244;10.534;2023-02-16T11:26:38;101394.03;;;12.81;47.54
6778;BME280;3426;52.244;10.534;2023-02-16T11:29:25;101398.97;;;12.71;48.42
6778;BME280;3426;52.244;10.534;2023-02-16T11:31:52;101395.38;;;11.83;49.98
6778;BME280;3426;52.244;10.534;2023-02-16T11:37:03;101385.50;;;12.92;46.84
6778;BME280;3426;52.244;10.534;2023-02-16T11:39:35;101390.25;;;12.16;49.75
6778;BME280;3426;52.244;10.534;2023-02-16T11:42:06;101388.84;;;11.71;51.27
6778;BME280;3426;52.244;10.534;2023-02-16T11:47:07;101395.19;;;12.41;49.25
6778;BME280;3426;52.244;10.534;2023-02-16T11:49:39;101400.47;;;11.87;50.05
6778;BME280;3426;52.244;10.534;2023-02-16T11:52:26;101395.13;;;12.42;49.71
6778;BME280;3426;52.244;10.534;2023-02-16T11:54:56;101398.06;;;12.36;50.02
6778;BME280;3426;52.244;10.534;2023-02-16T11:57:27;101398.88;;;12.56;49.88
6778;BME280;3426;52.244;10.534;2023-02-16T11:59:55;101404.84;;;12.25;51.35
6778;BME280;3426;52.244;10.534;2023-02-16T12:07:44;101407.19;;;11.57;50.10
6778;BME280;3426;52.244;10.534;2023-02-16T12:10:21;101396.44;;;11.60;49.65
6778;BME280;3426;52.244;10.534;2023-02-16T12:18:30;101385.84;;;12.51;48.22
6778;BME280;3426;52.244;10.534;2023-02-16T12:21:20;101383.16;;;12.51;48.64
6778;BME280;3426;52.244;10.534;2023-02-16T12:23:59;101389.03;;;12.58;48.47
6778;BME280;3426;52.244;10.534;2023-02-16T12:26:42;101373.47;;;12.85;46.67
6778;BME280;3426;52.244;10.534;2023-02-16T12:37:44;101388.66;;;12.65;48.01
6778;BME280;3426;52.244;10.534;2023-02-16T12:45:55;101387.91;;;11.91;49.23
6778;BME280;3426;52.244;10.534;2023-02-16T12:51:13;101394.44;;;11.46;50.36
6778;BME280;3426;52.244;10.534;2023-02-16T12:56:35;101399.19;;;11.19;50.73
6778;BME280;3426;52.244;10.534;2023-02-16T13:01:58;101399.66;;;11.48;49.79
6778;BME280;3426;52.244;10.534;2023-02-16T13:07:01;101393.91;;;11.19;51.35
6778;BME280;3426;52.244;10.534;2023-02-16T13:09:36;101400.44;;;11.50;51.06
6778;BME280;3426;52.244;10.534;2023-02-16T13:14:55;101394.56;;;11.43;51.54
6778;BME280;3426;52.244;10.534;2023-02-16T13:17:40;101383.53;;;11.71;50.53
6778;BME280;3426;52.244;10.534;2023-02-16T13:20:13;101382.81;;;11.49;51.24
6778;BME280;3426;52.244;10.534;2023-02-16T13:27:55;101369.31;;;11.72;51.02
6778;BME280;3426;52.244;10.534;2023-02-16T13:33:20;101373.03;;;12.06;50.59
6778;BME280;3426;52.244;10.534;2023-02-16T13:35:55;101357.78;;;11.54;52.39
6778;BME280;3426;52.244;10.534;2023-02-16T13:44:02;101344.78;;;12.22;49.20
6778;BME280;3426;52.244;10.534;2023-02-16T13:46:44;101331.06;;;12.31;49.46
6778;BME280;3426;52.244;10.534;2023-02-16T13:52:04;101331.78;;;11.81;51.69
6778;BME280;3426;52.244;10.534;2023-02-16T13:54:35;101326.97;;;12.07;51.70
6778;BME280;3426;52.244;10.534;2023-02-16T13:57:03;101325.75;;;12.31;51.26
6778;BME280;3426;52.244;10.534;2023-02-16T14:02:06;101319.59;;;12.81;50.46
6778;BME280;3426;52.244;10.534;2023-02-16T14:14:44;101309.31;;;12.06;49.85
6778;BME280;3426;52.244;10.534;2023-02-16T14:22:22;101309.41;;;12.39;49.37
6778;BME280;3426;52.244;10.534;2023-02-16T14:24:54;101313.00;;;12.20;48.98
6778;BME280;3426;52.244;10.534;2023-02-16T14:27:43;101305.28;;;12.33;49.09
6778;BME280;3426;52.244;10.534;2023-02-16T14:33:19;101299.69;;;12.72;47.63
6778;BME280;3426;52.244;10.534;2023-02-16T14:38:26;101300.81;;;12.51;48.79
6778;BME280;3426;52.244;10.534;2023-02-16T14:40:57;101300.22;;;12.79;48.52
6778;BME280;3426;52.244;10.534;2023-02-16T14:57:59;101278.00;;;12.80;48.65
6778;BME280;3426;52.244;10.534;2023-02-16T15:00:02;101278.50;;;12.20;49.51
6778;BME280;3426;52.244;10.534;2023-02-16T15:02:36;101265.75;;;11.74;50.23
6778;BME280;3426;52.244;10.534;2023-02-16T15:05:21;101264.59;;;12.15;49.17
6778;BME280;3426;52.244;10.534;2023-02-16T15:07:53;101264.34;;;11.66;50.28
6778;BME280;3426;52.244;10.534;2023-02-16T15:10:25;101266.34;;;12.50;49.12
6778;BME280;3426;52.244;10.534;2023-02-16T15:12:54;101267.78;;;12.05;49.88
6778;BME280;3426;52.244;10.534;2023-02-16T15:15:27;101269.28;;;11.74;51.37
6778;BME280;3426;52.244;10.534;2023-02-16T15:17:56;101263.88;;;12.12;49.03
6778;BME280;3426;52.244;10.534;2023-02-16T15:20:34;101263.56;;;13.02;48.20
6778;BME280;3426;52.244;10.534;2023-02-16T15:23:14;101266.91;;;12.39;49.91
6778;BME280;3426;52.244;10.534;2023-02-16T15:25:41;101281.47;;;12.65;49.41
6778;BME280;3426;52.244;10.534;2023-02-16T15:30:44;101272.88;;;12.09;50.63
6778;BME280;3426;52.244;10.534;2023-02-16T15:33:25;101274.34;;;12.32;49.41
6778;BME280;3426;52.244;10.534;2023-02-16T15:35:55;101271.44;;;12.02;50.25
6778;BME280;3426;52.244;10.534;2023-02-16T15:38:32;101279.56;;;11.63;51.30
6778;BME280;3426;52.244;10.534;2023-02-16T15:41:03;101272.16;;;12.23;49.38
6778;BME280;3426;52.244;10.534;2023-02-16T15:46:38;101261.44;;;12.25;49.86
6778;BME280;3426;52.244;10.534;2023-02-16T15:49:13;101261.19;;;12.46;49.69
6778;BME280;3426;52.244;10.534;2023-02-16T15:51:40;101258.88;;;12.23;48.74
6778;BME280;3426;52.244;10.534;2023-02-16T15:54:27;101260.44;;;12.10;49.98
6778;BME280;3426;52.244;10.534;2023-02-16T15:56:57;101253.66;;;12.04;50.40
6778;BME280;3426;52.244;10.534;2023-02-16T15:59:43;101248.09;;;12.26;51.69
6778;BME280;3426;52.244;10.534;2023-02-16T16:02:18;101249.06;;;12.58;50.52
6778;BME280;3426;52.244;10.534;2023-02-16T16:04:51;101252.47;;;12.27;52.10
6778;BME280;3426;52.244;10.534;2023-02-16T16:07:40;101248.75;;;12.14;52.72